Time;durP1;ratioP1;P1;durP2;ratioP2;P2;SDS_P1;SDS_P2;PMS_P1;PMS_P2;Temp;Humidity;BMP_temperature;BMP_pressure;BME280_temperature;BME280_humidity;BME280_pressure;Samples;Min_cycle;Max_cycle;Signal;HPM_P1;HPM_P2
2022/03/25 00:00:14;;;;;;;27.57;13.53;;;;;;;;;;5075521;28;20471;-72
2022/03/25 00:02:42;;;;;;;26.83;15.97;;;;;;;;;;5076034;28;20891;-72
2022/03/25 00:05:10;;;;;;;23.80;16.37;;;;;;;;;;5076274;28;20541;-73
2022/03/25 00:07:38;;;;;;;25.10;15.47;;;;;;;;;;5078515;28;20957;-73
2022/03/25 00:10:07;;;;;;;26.87;15.80;;;;;;;;;;5079016;28;20529;-73
2022/03/25 00:12:34;;;;;;;31.73;17.10;;;;;;;;;;5078924;28;20559;-73
2022/03/25 00:15:03;;;;;;;27.40;17.87;;;;;;;;;;5078983;28;20453;-73
2022/03/25 00:17:31;;;;;;;24.60;16.00;;;;;;;;;;5078944;28;20468;-73
2022/03/25 00:19:59;;;;;;;26.80;16.60;;;;;;;;;;5078943;28;20463;-73
2022/03/25 00:22:27;;;;;;;24.13;13.90;;;;;;;;;;5078872;28;20896;-72
2022/03/25 00:24:54;;;;;;;26.40;15.10;;;;;;;;;;5079189;28;20525;-72
2022/03/25 00:27:23;;;;;;;27.60;16.33;;;;;;;;;;5078784;28;20926;-72
2022/03/25 00:29:51;;;;;;;30.50;15.60;;;;;;;;;;5079063;28;20448;-72
2022/03/25 00:32:21;;;;;;;27.20;16.20;;;;;;;;;;5078692;28;20928;-72
2022/03/25 00:34:48;;;;;;;22.73;13.30;;;;;;;;;;5078255;28;20549;-72
2022/03/25 00:37:19;;;;;;;24.20;15.10;;;;;;;;;;5079459;28;20491;-72
2022/03/25 00:39:46;;;;;;;20.50;14.87;;;;;;;;;;5078220;28;20467;-72
2022/03/25 00:42:16;;;;;;;22.90;14.40;;;;;;;;;;5079182;28;20899;-72
2022/03/25 00:44:44;;;;;;;26.07;14.70;;;;;;;;;;5079097;28;20476;-72
2022/03/25 00:47:12;;;;;;;30.00;14.00;;;;;;;;;;5079242;28;20461;-73
2022/03/25 00:49:42;;;;;;;23.37;16.50;;;;;;;;;;5078987;28;20555;-73
2022/03/25 00:52:10;;;;;;;27.30;16.90;;;;;;;;;;5079620;28;20488;-73
2022/03/25 00:54:37;;;;;;;26.60;16.47;;;;;;;;;;5078884;28;20480;-73
2022/03/25 00:57:05;;;;;;;21.83;15.00;;;;;;;;;;5079080;28;20479;-73
2022/03/25 00:59:33;;;;;;;25.83;14.57;;;;;;;;;;5078601;28;20740;-73
2022/03/25 01:02:01;;;;;;;28.63;15.63;;;;;;;;;;5078973;28;20824;-73
2022/03/25 01:04:29;;;;;;;28.07;13.43;;;;;;;;;;5078639;28;20777;-73
2022/03/25 01:06:59;;;;;;;25.53;14.93;;;;;;;;;;5078587;28;20460;-73
2022/03/25 01:09:27;;;;;;;20.53;13.10;;;;;;;;;;5078506;28;20465;-73
2022/03/25 01:11:54;;;;;;;26.93;15.40;;;;;;;;;;5077936;28;20519;-73
2022/03/25 01:14:22;;;;;;;28.63;15.33;;;;;;;;;;5077982;28;20465;-73
2022/03/25 01:16:50;;;;;;;31.63;16.63;;;;;;;;;;5077042;28;20464;-73
2022/03/25 01:19:19;;;;;;;22.93;14.67;;;;;;;;;;5077114;28;20471;-73
2022/03/25 01:21:47;;;;;;;24.40;14.13;;;;;;;;;;5077977;28;20467;-73
2022/03/25 01:24:16;;;;;;;24.27;14.93;;;;;;;;;;5078019;28;20470;-73
2022/03/25 01:26:44;;;;;;;24.30;16.30;;;;;;;;;;5077701;28;20783;-73
2022/03/25 01:29:12;;;;;;;22.57;14.20;;;;;;;;;;5077520;28;20870;-73
2022/03/25 01:31:40;;;;;;;29.13;17.40;;;;;;;;;;5077352;28;20746;-74
2022/03/25 01:34:10;;;;;;;27.90;16.37;;;;;;;;;;5077544;28;20885;-73
2022/03/25 01:36:38;;;;;;;19.37;12.73;;;;;;;;;;5076835;28;20488;-73
2022/03/25 01:39:06;;;;;;;30.03;14.00;;;;;;;;;;5076957;28;20896;-73
2022/03/25 01:41:35;;;;;;;22.23;15.10;;;;;;;;;;5077403;28;20548;-73
2022/03/25 01:44:04;;;;;;;19.77;15.20;;;;;;;;;;5076757;28;20448;-73
2022/03/25 01:46:32;;;;;;;25.10;13.83;;;;;;;;;;5077936;28;20486;-73
2022/03/25 01:49:00;;;;;;;27.30;15.60;;;;;;;;;;5077810;28;20468;-73
2022/03/25 01:51:29;;;;;;;29.43;13.30;;;;;;;;;;5077778;28;20453;-73
2022/03/25 01:54:00;;;;;;;23.70;16.03;;;;;;;;;;5077909;28;20471;-73
2022/03/25 01:56:28;;;;;;;27.20;16.57;;;;;;;;;;5077600;28;20453;-72
2022/03/25 01:58:57;;;;;;;19.20;13.97;;;;;;;;;;5077932;28;20877;-73
2022/03/25 02:01:26;;;;;;;22.80;13.00;;;;;;;;;;5077342;28;20457;-73
2022/03/25 02:03:56;;;;;;;25.10;14.40;;;;;;;;;;5077581;28;20464;-73
2022/03/25 02:06:24;;;;;;;20.90;15.50;;;;;;;;;;5077495;28;20832;-73
2022/03/25 02:08:54;;;;;;;29.47;16.07;;;;;;;;;;5077445;28;20491;-72
2022/03/25 02:11:22;;;;;;;24.03;15.20;;;;;;;;;;5077427;28;20488;-73
2022/03/25 02:13:52;;;;;;;22.33;15.50;;;;;;;;;;5077440;28;20468;-72
2022/03/25 02:16:22;;;;;;;24.67;15.73;;;;;;;;;;5077667;28;20900;-72
2022/03/25 02:18:50;;;;;;;29.03;21.33;;;;;;;;;;5076953;28;20511;-72
2022/03/25 02:21:18;;;;;;;25.00;15.07;;;;;;;;;;5076821;28;20486;-73
2022/03/25 02:23:47;;;;;;;25.60;14.07;;;;;;;;;;5077342;28;20480;-73
2022/03/25 02:26:14;;;;;;;25.80;15.30;;;;;;;;;;5076919;28;20460;-73
2022/03/25 02:28:42;;;;;;;26.63;14.83;;;;;;;;;;5077081;28;20521;-73
2022/03/25 02:31:10;;;;;;;23.10;13.70;;;;;;;;;;5077712;28;20456;-73
2022/03/25 02:33:37;;;;;;;24.10;13.47;;;;;;;;;;5077475;28;20490;-73
2022/03/25 02:36:08;;;;;;;26.23;13.27;;;;;;;;;;5077410;28;20453;-73
2022/03/25 02:38:36;;;;;;;24.67;13.57;;;;;;;;;;5077138;28;20452;-73
2022/03/25 02:41:05;;;;;;;26.40;13.13;;;;;;;;;;5076541;28;20470;-72
2022/03/25 02:43:33;;;;;;;20.70;12.80;;;;;;;;;;5077180;28;20548;-73
2022/03/25 02:46:01;;;;;;;24.07;14.30;;;;;;;;;;5076957;28;20891;-73
2022/03/25 02:48:28;;;;;;;18.93;12.30;;;;;;;;;;5077172;28;20466;-73
2022/03/25 02:50:56;;;;;;;24.00;12.40;;;;;;;;;;5077132;28;20471;-73
2022/03/25 02:53:24;;;;;;;24.47;14.97;;;;;;;;;;5076865;28;20488;-73
2022/03/25 02:55:52;;;;;;;22.20;14.03;;;;;;;;;;5076687;28;20746;-73
2022/03/25 02:58:21;;;;;;;18.73;12.00;;;;;;;;;;5077153;28;20518;-73
2022/03/25 03:00:50;;;;;;;20.43;12.20;;;;;;;;;;5076321;28;20467;-73
2022/03/25 03:03:18;;;;;;;19.80;13.70;;;;;;;;;;5076742;28;20457;-73
2022/03/25 03:05:46;;;;;;;17.43;11.60;;;;;;;;;;5077037;28;20464;-73
2022/03/25 03:08:14;;;;;;;21.97;13.37;;;;;;;;;;5076580;28;20460;-73
2022/03/25 03:10:42;;;;;;;23.43;12.67;;;;;;;;;;5076398;28;20457;-73
2022/03/25 03:13:10;;;;;;;21.50;13.10;;;;;;;;;;5076946;28;20488;-73
2022/03/25 03:15:40;;;;;;;20.93;12.50;;;;;;;;;;5077296;28;20491;-73
2022/03/25 03:18:08;;;;;;;22.67;13.27;;;;;;;;;;5076757;28;20456;-73
2022/03/25 03:20:35;;;;;;;21.63;12.50;;;;;;;;;;5076694;28;20930;-73
2022/03/25 03:23:03;;;;;;;19.60;12.83;;;;;;;;;;5077101;28;20457;-73
2022/03/25 03:25:31;;;;;;;17.57;12.20;;;;;;;;;;5076317;28;20520;-73
2022/03/25 03:27:59;;;;;;;18.77;12.27;;;;;;;;;;5076222;28;20465;-73
2022/03/25 03:30:26;;;;;;;18.07;13.07;;;;;;;;;;5076055;28;20686;-73
2022/03/25 03:32:57;;;;;;;24.60;13.63;;;;;;;;;;5076679;28;20480;-73
2022/03/25 03:35:26;;;;;;;27.83;14.20;;;;;;;;;;5076520;28;20535;-73
2022/03/25 03:37:54;;;;;;;27.00;12.67;;;;;;;;;;5076767;28;20468;-73
2022/03/25 03:40:23;;;;;;;26.03;13.63;;;;;;;;;;5078237;28;20522;-72
2022/03/25 03:42:51;;;;;;;25.30;12.90;;;;;;;;;;5080331;28;20464;-73
2022/03/25 03:45:19;;;;;;;18.73;12.77;;;;;;;;;;5081038;28;20548;-72
2022/03/25 03:47:47;;;;;;;30.33;13.60;;;;;;;;;;5080169;28;20448;-73
2022/03/25 03:50:17;;;;;;;23.63;14.40;;;;;;;;;;5080484;28;20931;-73
2022/03/25 03:52:45;;;;;;;19.60;12.33;;;;;;;;;;5079770;28;20571;-73
2022/03/25 03:55:13;;;;;;;22.83;12.27;;;;;;;;;;5080394;28;20492;-73
2022/03/25 03:57:41;;;;;;;20.70;13.57;;;;;;;;;;5080462;28;20518;-73
2022/03/25 04:00:10;;;;;;;22.27;12.43;;;;;;;;;;5079738;28;20533;-73
2022/03/25 04:02:38;;;;;;;24.90;13.30;;;;;;;;;;5079745;28;20456;-73
2022/03/25 04:05:06;;;;;;;27.33;13.97;;;;;;;;;;5079089;28;20460;-73
2022/03/25 04:07:40;;;;;;;21.50;12.07;;;;;;;;;;5080079;28;20467;-72
2022/03/25 04:10:08;;;;;;;18.20;12.17;;;;;;;;;;5080055;28;20880;-73
2022/03/25 04:12:36;;;;;;;26.00;14.67;;;;;;;;;;5080874;28;20487;-73
2022/03/25 04:15:04;;;;;;;23.67;13.07;;;;;;;;;;5079600;28;20469;-73
2022/03/25 04:17:32;;;;;;;20.57;13.23;;;;;;;;;;5080020;28;20460;-73
2022/03/25 04:20:00;;;;;;;22.73;12.77;;;;;;;;;;5079407;28;20875;-72
2022/03/25 04:22:28;;;;;;;24.40;15.20;;;;;;;;;;5079675;28;20480;-72
2022/03/25 04:24:57;;;;;;;22.90;14.73;;;;;;;;;;5079380;28;20841;-72
2022/03/25 04:27:25;;;;;;;28.47;14.47;;;;;;;;;;5079745;28;20474;-72
2022/03/25 04:29:55;;;;;;;19.67;14.47;;;;;;;;;;5078725;28;20459;-72
2022/03/25 04:32:22;;;;;;;25.20;16.93;;;;;;;;;;5079451;28;20831;-72
2022/03/25 04:34:50;;;;;;;26.73;14.17;;;;;;;;;;5079907;28;20484;-72
2022/03/25 04:37:21;;;;;;;21.93;14.57;;;;;;;;;;5079929;28;20510;-72
2022/03/25 04:39:49;;;;;;;20.83;11.90;;;;;;;;;;5079391;28;20766;-72
2022/03/25 04:42:29;;;;;;;24.67;13.00;;;;;;;;;;5080035;28;20759;-72
2022/03/25 04:44:57;;;;;;;25.83;14.60;;;;;;;;;;5079450;28;20486;-72
2022/03/25 04:47:27;;;;;;;22.77;14.40;;;;;;;;;;5079260;28;20559;-72
2022/03/25 04:49:56;;;;;;;20.80;13.77;;;;;;;;;;5079249;28;20510;-72
2022/03/25 04:52:23;;;;;;;27.33;15.93;;;;;;;;;;5078930;28;20475;-72
2022/03/25 04:54:51;;;;;;;26.93;18.60;;;;;;;;;;5079233;28;20525;-72
2022/03/25 04:57:20;;;;;;;22.23;19.33;;;;;;;;;;5078819;28;20456;-72
2022/03/25 04:59:51;;;;;;;24.20;15.57;;;;;;;;;;5079396;28;20560;-73
2022/03/25 05:02:19;;;;;;;23.07;14.80;;;;;;;;;;5078236;28;20467;-73
2022/03/25 05:04:46;;;;;;;27.87;19.63;;;;;;;;;;5078928;28;20496;-72
2022/03/25 05:07:17;;;;;;;31.03;15.00;;;;;;;;;;5078816;28;20487;-73
2022/03/25 05:09:45;;;;;;;23.40;14.73;;;;;;;;;;5078761;28;20543;-73
2022/03/25 05:12:14;;;;;;;22.70;14.53;;;;;;;;;;5078373;28;20489;-73
2022/03/25 05:14:43;;;;;;;30.57;15.60;;;;;;;;;;5078193;28;20456;-73
2022/03/25 05:17:11;;;;;;;30.60;17.13;;;;;;;;;;5078418;28;20551;-72
2022/03/25 05:19:42;;;;;;;25.00;11.93;;;;;;;;;;5077837;28;20555;-73
2022/03/25 05:22:09;;;;;;;24.73;14.83;;;;;;;;;;5077863;28;20456;-73
2022/03/25 05:24:40;;;;;;;20.40;14.10;;;;;;;;;;5077935;28;20453;-72
2022/03/25 05:27:08;;;;;;;31.93;26.10;;;;;;;;;;5078426;28;20465;-72
2022/03/25 05:29:38;;;;;;;31.67;28.33;;;;;;;;;;5077640;28;20536;-73
2022/03/25 05:32:07;;;;;;;35.73;32.13;;;;;;;;;;5077659;28;20983;-72
2022/03/25 05:34:35;;;;;;;29.27;25.60;;;;;;;;;;5076234;28;20480;-73
2022/03/25 05:37:03;;;;;;;29.90;24.50;;;;;;;;;;5076203;28;20479;-72
2022/03/25 05:39:31;;;;;;;32.67;27.00;;;;;;;;;;5076777;28;20480;-73
2022/03/25 05:42:00;;;;;;;26.47;19.63;;;;;;;;;;5076524;28;20717;-72
2022/03/25 05:44:33;;;;;;;26.60;22.17;;;;;;;;;;5076478;28;20523;-72
2022/03/25 05:47:01;;;;;;;36.23;29.20;;;;;;;;;;5077099;28;20467;-72
2022/03/25 05:49:32;;;;;;;37.43;22.90;;;;;;;;;;5075799;28;20737;-72
2022/03/25 05:52:00;;;;;;;29.77;26.70;;;;;;;;;;5075913;28;20502;-72
2022/03/25 05:54:28;;;;;;;30.70;23.30;;;;;;;;;;5076105;28;20488;-73
2022/03/25 05:56:56;;;;;;;29.87;20.77;;;;;;;;;;5076802;28;20464;-72
2022/03/25 05:59:24;;;;;;;26.43;19.50;;;;;;;;;;5075731;28;20453;-73
2022/03/25 06:01:52;;;;;;;36.00;16.40;;;;;;;;;;5074267;28;20465;-73
2022/03/25 06:04:20;;;;;;;27.47;17.63;;;;;;;;;;5055172;28;20519;-72
2022/03/25 06:06:49;;;;;;;33.63;19.20;;;;;;;;;;5055195;28;20777;-73
2022/03/25 06:09:17;;;;;;;30.63;17.80;;;;;;;;;;5058807;28;20461;-72
2022/03/25 06:11:45;;;;;;;34.33;20.00;;;;;;;;;;5055335;28;20482;-72
2022/03/25 06:14:13;;;;;;;35.40;23.77;;;;;;;;;;5055141;28;20966;-72
2022/03/25 06:16:41;;;;;;;34.47;24.97;;;;;;;;;;5039062;28;20711;-72
2022/03/25 06:19:09;;;;;;;29.50;17.90;;;;;;;;;;5054961;28;20527;-72
2022/03/25 06:21:40;;;;;;;28.97;18.60;;;;;;;;;;5055334;28;20453;-72
2022/03/25 06:24:09;;;;;;;28.17;21.03;;;;;;;;;;5055743;28;20458;-72
2022/03/25 06:26:37;;;;;;;28.30;25.30;;;;;;;;;;5052801;28;20453;-72
2022/03/25 06:29:05;;;;;;;28.63;22.10;;;;;;;;;;5052655;28;20578;-72
2022/03/25 06:31:34;;;;;;;28.13;21.50;;;;;;;;;;5073719;28;20725;-73
2022/03/25 06:34:03;;;;;;;33.23;23.70;;;;;;;;;;5073508;28;20989;-72
2022/03/25 06:36:31;;;;;;;38.90;24.97;;;;;;;;;;5093631;28;20470;-72
2022/03/25 06:39:02;;;;;;;32.27;20.93;;;;;;;;;;5073777;28;20476;-72
2022/03/25 06:41:33;;;;;;;26.63;17.90;;;;;;;;;;5073857;28;20891;-72
2022/03/25 06:44:01;;;;;;;29.53;26.20;;;;;;;;;;5072496;28;20483;-72
2022/03/25 06:46:28;;;;;;;27.13;21.93;;;;;;;;;;5073270;28;20496;-72
2022/03/25 06:48:56;;;;;;;35.87;32.47;;;;;;;;;;5072998;28;20456;-73
2022/03/25 06:51:28;;;;;;;30.90;20.90;;;;;;;;;;5064564;28;20537;-73
2022/03/25 06:53:56;;;;;;;38.27;27.20;;;;;;;;;;5073578;28;20518;-73
2022/03/25 06:56:26;;;;;;;39.30;35.03;;;;;;;;;;5074398;28;20461;-72
2022/03/25 06:58:56;;;;;;;36.50;29.90;;;;;;;;;;5074730;28;20472;-72
2022/03/25 07:01:24;;;;;;;35.00;28.13;;;;;;;;;;5059172;28;20457;-72
2022/03/25 07:03:52;;;;;;;35.53;23.23;;;;;;;;;;5053025;28;20865;-72
2022/03/25 07:06:24;;;;;;;41.53;33.47;;;;;;;;;;5053456;28;20454;-72
2022/03/25 07:08:54;;;;;;;38.73;31.30;;;;;;;;;;5065513;28;20464;-71
2022/03/25 07:11:23;;;;;;;41.20;36.67;;;;;;;;;;5072005;28;20976;-71
2022/03/25 07:13:51;;;;;;;47.63;37.63;;;;;;;;;;5073728;28;20504;-71
2022/03/25 07:16:20;;;;;;;59.43;50.63;;;;;;;;;;5062986;28;20457;-71
2022/03/25 07:18:48;;;;;;;48.50;27.83;;;;;;;;;;5053899;28;20559;-70
2022/03/25 07:21:20;;;;;;;42.93;38.43;;;;;;;;;;5060113;28;20456;-72
2022/03/25 07:23:48;;;;;;;64.60;58.70;;;;;;;;;;5075152;28;20475;-73
2022/03/25 07:26:17;;;;;;;74.03;67.23;;;;;;;;;;5070364;28;20484;-72
2022/03/25 07:28:45;;;;;;;47.03;42.23;;;;;;;;;;5053403;28;20565;-71
2022/03/25 07:31:12;;;;;;;43.73;28.47;;;;;;;;;;5066892;28;20476;-70
2022/03/25 07:33:42;;;;;;;45.30;38.53;;;;;;;;;;5058748;28;20572;-72
2022/03/25 07:36:16;;;;;;;53.83;48.50;;;;;;;;;;5068448;28;20456;-72
2022/03/25 07:38:44;;;;;;;45.03;39.30;;;;;;;;;;5072502;28;20533;-73
2022/03/25 07:41:15;;;;;;;41.20;32.73;;;;;;;;;;5074343;28;20475;-72
2022/03/25 07:43:44;;;;;;;35.60;31.70;;;;;;;;;;5054951;28;20912;-72
2022/03/25 07:46:12;;;;;;;34.80;27.63;;;;;;;;;;5053987;28;20457;-72
2022/03/25 07:48:40;;;;;;;46.20;37.40;;;;;;;;;;5053903;28;20457;-71
2022/03/25 07:51:10;;;;;;;40.33;32.23;;;;;;;;;;5053474;28;20463;-72
2022/03/25 07:53:38;;;;;;;38.67;33.70;;;;;;;;;;5054152;28;20493;-71
2022/03/25 07:56:06;;;;;;;40.90;34.20;;;;;;;;;;5053880;28;20461;-70
2022/03/25 07:58:34;;;;;;;41.90;37.47;;;;;;;;;;5054479;28;20489;-71
2022/03/25 08:01:04;;;;;;;37.73;29.83;;;;;;;;;;5056374;28;20531;-70
2022/03/25 08:03:35;;;;;;;42.73;34.17;;;;;;;;;;5054401;28;20538;-71
2022/03/25 08:06:03;;;;;;;38.23;28.30;;;;;;;;;;5053778;28;20881;-70
2022/03/25 08:08:33;;;;;;;50.10;45.33;;;;;;;;;;5066361;28;20456;-71
2022/03/25 08:11:00;;;;;;;45.83;36.17;;;;;;;;;;5072662;28;20875;-72
2022/03/25 08:13:29;;;;;;;60.33;54.10;;;;;;;;;;5072720;28;20934;-70
2022/03/25 08:15:58;;;;;;;49.77;44.67;;;;;;;;;;5073640;28;20464;-71
2022/03/25 08:18:26;;;;;;;43.57;34.90;;;;;;;;;;5073671;28;20460;-70
2022/03/25 08:20:56;;;;;;;38.90;30.40;;;;;;;;;;5065720;28;20888;-71
2022/03/25 08:29:02;;;;;;;51.07;35.70;;;;;;;;;;5074646;28;20435;-72
2022/03/25 08:31:29;;;;;;;50.73;35.80;;;;;;;;;;5066742;28;20531;-72
2022/03/25 08:34:03;;;;;;;53.80;33.57;;;;;;;;;;5083549;28;20936;-72
2022/03/25 08:36:34;;;;;;;48.50;37.23;;;;;;;;;;5085803;28;20458;-73
2022/03/25 08:39:06;;;;;;;48.83;36.03;;;;;;;;;;5060502;28;20517;-72
2022/03/25 08:41:53;;;;;;;49.17;34.10;;;;;;;;;;5076749;28;20480;-72
2022/03/25 08:44:23;;;;;;;53.03;32.63;;;;;;;;;;5069228;28;20546;-72
2022/03/25 08:46:51;;;;;;;53.00;32.53;;;;;;;;;;5060902;28;20464;-72
2022/03/25 08:49:20;;;;;;;53.23;32.30;;;;;;;;;;5067809;28;20461;-75
2022/03/25 08:52:06;;;;;;;54.20;39.30;;;;;;;;;;5061655;28;20581;-73
2022/03/25 08:54:34;;;;;;;60.43;35.43;;;;;;;;;;5074240;28;20507;-72
2022/03/25 08:57:06;;;;;;;55.43;33.53;;;;;;;;;;5053474;28;20461;-73
2022/03/25 08:59:34;;;;;;;49.40;34.27;;;;;;;;;;5054177;28;20489;-73
2022/03/25 09:02:03;;;;;;;40.70;30.60;;;;;;;;;;5073085;28;20453;-72
2022/03/25 09:04:31;;;;;;;52.33;28.43;;;;;;;;;;5076056;28;20760;-73
2022/03/25 09:07:00;;;;;;;50.30;31.20;;;;;;;;;;5076622;28;20530;-72
2022/03/25 09:09:31;;;;;;;47.20;32.33;;;;;;;;;;5068803;28;20479;-73
2022/03/25 09:11:59;;;;;;;50.87;37.80;;;;;;;;;;5074156;28;20456;-72
2022/03/25 09:14:38;;;;;;;51.47;39.03;;;;;;;;;;5074313;28;20637;-72
2022/03/25 09:17:16;;;;;;;53.40;40.47;;;;;;;;;;5067938;28;20477;-73
2022/03/25 09:19:45;;;;;;;38.23;34.13;;;;;;;;;;5044232;28;20536;-73
2022/03/25 09:22:13;;;;;;;49.77;32.27;;;;;;;;;;5055008;28;20466;-73
2022/03/25 09:24:41;;;;;;;48.00;36.07;;;;;;;;;;5055216;28;20477;-73
2022/03/25 09:27:09;;;;;;;41.47;28.63;;;;;;;;;;5056147;28;20445;-72
2022/03/25 09:29:44;;;;;;;48.97;29.27;;;;;;;;;;5055289;28;20465;-72
2022/03/25 09:32:16;;;;;;;44.77;31.00;;;;;;;;;;5061914;28;20858;-72
2022/03/25 09:37:32;;;;;;;53.93;42.10;;;;;;;;;;5074418;28;20578;-73
2022/03/25 09:40:02;;;;;;;41.63;27.43;;;;;;;;;;5069723;28;20577;-74
2022/03/25 09:42:53;;;;;;;44.60;31.03;;;;;;;;;;5055610;28;20481;-74
2022/03/25 09:45:32;;;;;;;45.97;31.33;;;;;;;;;;5059028;28;20490;-73
2022/03/25 09:48:03;;;;;;;52.93;37.30;;;;;;;;;;5073890;28;20444;-73
2022/03/25 09:50:37;;;;;;;49.63;31.90;;;;;;;;;;5061964;28;20484;-73
2022/03/25 09:53:29;;;;;;;50.30;31.50;;;;;;;;;;5075015;28;20460;-75
2022/03/25 09:56:06;;;;;;;47.23;30.17;;;;;;;;;;5074314;28;20480;-73
2022/03/25 09:58:45;;;;;;;51.77;33.47;;;;;;;;;;5064992;28;20452;-74
2022/03/25 10:01:17;;;;;;;48.80;31.93;;;;;;;;;;5075305;28;20473;-74
2022/03/25 10:03:46;;;;;;;51.07;33.93;;;;;;;;;;5073305;28;20483;-74
2022/03/25 10:06:20;;;;;;;46.93;30.73;;;;;;;;;;5068597;28;20460;-74
2022/03/25 10:08:58;;;;;;;45.07;29.57;;;;;;;;;;5060790;28;20556;-74
2022/03/25 10:11:27;;;;;;;51.23;30.23;;;;;;;;;;5074806;28;20468;-74
2022/03/25 10:14:18;;;;;;;52.60;26.87;;;;;;;;;;5067497;28;20536;-75
2022/03/25 10:16:51;;;;;;;50.80;25.90;;;;;;;;;;5072659;28;21068;-75
2022/03/25 10:19:19;;;;;;;33.80;20.17;;;;;;;;;;5073022;28;20452;-73
2022/03/25 10:21:55;;;;;;;56.87;27.70;;;;;;;;;;5067421;28;20472;-74
2022/03/25 10:24:39;;;;;;;45.20;26.80;;;;;;;;;;5074960;28;20471;-74
2022/03/25 10:27:17;;;;;;;40.90;23.80;;;;;;;;;;5062258;28;20535;-74
2022/03/25 10:29:50;;;;;;;39.83;27.37;;;;;;;;;;5055742;28;20465;-75
2022/03/25 10:32:24;;;;;;;47.20;27.70;;;;;;;;;;5057102;28;20488;-74
2022/03/25 10:35:12;;;;;;;45.30;27.53;;;;;;;;;;5053831;28;20916;-73
2022/03/25 10:37:40;;;;;;;48.80;27.10;;;;;;;;;;5053301;28;20868;-75
2022/03/25 10:43:12;;;;;;;45.60;26.87;;;;;;;;;;5041473;28;21107;-74
2022/03/25 10:45:54;;;;;;;55.00;35.23;;;;;;;;;;5053880;28;20519;-76
2022/03/25 10:48:30;;;;;;;39.80;22.80;;;;;;;;;;5054508;28;20457;-76
2022/03/25 10:51:02;;;;;;;42.20;25.13;;;;;;;;;;5047591;28;20457;-76
2022/03/25 10:53:43;;;;;;;39.07;23.30;;;;;;;;;;5053901;28;20496;-74
2022/03/25 10:56:18;;;;;;;33.07;22.13;;;;;;;;;;5053519;28;20485;-73
2022/03/25 10:58:53;;;;;;;31.30;19.97;;;;;;;;;;5053155;28;20562;-74
2022/03/25 11:01:21;;;;;;;55.47;30.80;;;;;;;;;;5056387;28;20449;-74
2022/03/25 11:03:55;;;;;;;42.60;23.93;;;;;;;;;;5072811;28;20941;-74
2022/03/25 11:06:23;;;;;;;41.50;25.97;;;;;;;;;;5073719;28;20449;-73
2022/03/25 11:08:57;;;;;;;38.43;23.30;;;;;;;;;;5072765;28;20501;-72
2022/03/25 11:11:25;;;;;;;53.33;25.93;;;;;;;;;;5074760;28;20463;-72
2022/03/25 11:13:56;;;;;;;41.77;25.97;;;;;;;;;;5072116;28;20480;-72
2022/03/25 11:16:25;;;;;;;39.93;24.10;;;;;;;;;;5073569;28;20780;-73
2022/03/25 11:18:57;;;;;;;33.63;22.47;;;;;;;;;;5073072;28;20589;-72
2022/03/25 11:21:25;;;;;;;41.27;27.73;;;;;;;;;;5073861;28;20559;-73
2022/03/25 11:24:06;;;;;;;32.97;22.60;;;;;;;;;;5064687;28;20495;-74
2022/03/25 11:26:39;;;;;;;37.10;23.33;;;;;;;;;;5053012;28;20437;-73
2022/03/25 11:29:12;;;;;;;45.13;25.53;;;;;;;;;;5054219;28;20453;-72
2022/03/25 11:32:05;;;;;;;34.13;22.77;;;;;;;;;;5073642;28;20531;-73
2022/03/25 11:34:36;;;;;;;31.50;22.87;;;;;;;;;;5073562;28;20510;-73
2022/03/25 11:37:34;;;;;;;36.17;22.87;;;;;;;;;;5062723;28;20492;-74
2022/03/25 11:40:40;;;;;;;;;;;;;;;;;;;;;
2022/03/25 11:43:17;;;;;;;29.73;18.53;;;;;;;;;;5046628;28;20464;-73
2022/03/25 11:45:54;;;;;;;33.57;18.63;;;;;;;;;;5067004;28;20957;-73
2022/03/25 11:48:49;;;;;;;34.33;21.10;;;;;;;;;;5072352;28;20463;-75
2022/03/25 11:51:39;;;;;;;32.73;21.83;;;;;;;;;;5053771;28;20487;-75
2022/03/25 11:54:22;;;;;;;43.17;26.53;;;;;;;;;;5067746;28;20460;-74
2022/03/25 11:56:57;;;;;;;37.67;26.67;;;;;;;;;;5055389;28;20818;-74
2022/03/25 11:59:29;;;;;;;36.80;24.03;;;;;;;;;;5050566;28;20453;-74
2022/03/25 12:02:11;;;;;;;32.50;19.37;;;;;;;;;;5068409;28;20468;-74
2022/03/25 12:04:41;;;;;;;40.00;22.87;;;;;;;;;;5075664;28;20495;-75
2022/03/25 12:07:16;;;;;;;32.90;20.30;;;;;;;;;;5076381;28;20801;-74
2022/03/25 12:09:46;;;;;;;36.57;21.03;;;;;;;;;;5056145;28;20536;-74
2022/03/25 12:12:14;;;;;;;28.60;16.97;;;;;;;;;;5056133;28;20451;-75
2022/03/25 12:14:56;;;;;;;37.30;23.20;;;;;;;;;;5056968;28;20457;-74
2022/03/25 12:17:36;;;;;;;27.50;17.70;;;;;;;;;;5052947;28;20518;-75
2022/03/25 12:20:05;;;;;;;27.17;16.80;;;;;;;;;;5062810;28;20527;-75
2022/03/25 12:22:46;;;;;;;29.87;18.30;;;;;;;;;;5075590;28;20444;-72
2022/03/25 12:25:25;;;;;;;34.00;18.20;;;;;;;;;;5074649;28;20585;-75
2022/03/25 12:27:55;;;;;;;32.13;17.80;;;;;;;;;;5071617;28;20511;-74
2022/03/25 12:30:36;;;;;;;27.87;12.90;;;;;;;;;;5061691;28;20742;-73
2022/03/25 12:33:09;;;;;;;24.07;13.87;;;;;;;;;;5074319;28;20935;-74
2022/03/25 12:35:40;;;;;;;28.40;18.03;;;;;;;;;;5078046;28;20492;-74
2022/03/25 12:38:34;;;;;;;27.20;16.17;;;;;;;;;;5057122;28;20844;-74
2022/03/25 12:41:02;;;;;;;26.37;16.13;;;;;;;;;;5066308;28;20465;-73
2022/03/25 12:43:31;;;;;;;28.13;15.87;;;;;;;;;;5070511;28;20449;-73
2022/03/25 12:46:04;;;;;;;26.10;13.50;;;;;;;;;;5069928;28;20890;-73
2022/03/25 12:48:39;;;;;;;28.43;15.23;;;;;;;;;;5075428;28;20449;-73
2022/03/25 12:51:11;;;;;;;24.20;15.80;;;;;;;;;;5066492;28;20464;-75
2022/03/25 12:53:48;;;;;;;31.80;17.53;;;;;;;;;;5062571;28;20688;-73
2022/03/25 12:56:25;;;;;;;26.50;15.70;;;;;;;;;;5056656;28;20495;-72
2022/03/25 12:58:54;;;;;;;30.00;16.10;;;;;;;;;;5073385;28;20463;-76
2022/03/25 13:01:22;;;;;;;27.80;16.10;;;;;;;;;;5064283;28;20469;-75
2022/03/25 13:03:58;;;;;;;28.07;17.27;;;;;;;;;;5061116;28;20461;-74
2022/03/25 13:06:27;;;;;;;25.07;15.50;;;;;;;;;;5075115;28;20498;-73
2022/03/25 13:09:03;;;;;;;32.03;20.57;;;;;;;;;;5075284;28;20928;-74
2022/03/25 13:11:31;;;;;;;26.97;13.37;;;;;;;;;;5075594;28;20543;-74
2022/03/25 13:16:50;;;;;;;27.83;13.03;;;;;;;;;;5074000;28;20762;-75
2022/03/25 13:19:18;;;;;;;18.97;13.67;;;;;;;;;;5062363;28;20444;-75
2022/03/25 13:21:46;;;;;;;32.63;14.30;;;;;;;;;;5055265;28;20847;-75
2022/03/25 13:24:21;;;;;;;21.23;11.70;;;;;;;;;;5064061;28;20462;-74
2022/03/25 13:27:11;;;;;;;26.30;10.90;;;;;;;;;;5073907;28;20474;-74
2022/03/25 13:29:41;;;;;;;24.47;11.70;;;;;;;;;;5070997;28;20743;-74
2022/03/25 13:32:11;;;;;;;21.83;12.67;;;;;;;;;;5075414;28;20500;-74
2022/03/25 13:34:44;;;;;;;27.73;14.50;;;;;;;;;;5076236;28;20468;-74
2022/03/25 13:37:23;;;;;;;26.23;15.00;;;;;;;;;;5072961;28;20481;-75
2022/03/25 13:39:53;;;;;;;24.93;14.33;;;;;;;;;;5072142;28;20467;-75
2022/03/25 13:42:21;;;;;;;26.37;16.20;;;;;;;;;;5075196;28;20464;-74
2022/03/25 13:44:54;;;;;;;33.33;18.80;;;;;;;;;;5074769;28;20464;-75
2022/03/25 13:47:41;;;;;;;31.43;17.50;;;;;;;;;;5066660;28;20508;-74
2022/03/25 13:50:34;;;;;;;33.53;20.87;;;;;;;;;;5074835;28;20570;-75
2022/03/25 13:55:55;;;;;;;29.57;19.27;;;;;;;;;;5075012;28;20465;-75
2022/03/25 13:58:23;;;;;;;27.70;16.90;;;;;;;;;;5075179;28;20495;-75
2022/03/25 14:01:06;;;;;;;30.50;15.80;;;;;;;;;;5063095;28;20971;-75
2022/03/25 14:03:37;;;;;;;29.10;15.70;;;;;;;;;;5061364;28;21090;-75
2022/03/25 14:06:11;;;;;;;24.57;14.70;;;;;;;;;;5062649;28;20512;-74
2022/03/25 14:08:40;;;;;;;27.30;16.90;;;;;;;;;;5054858;28;20459;-75
2022/03/25 14:11:11;;;;;;;29.03;15.93;;;;;;;;;;5059861;28;20472;-74
2022/03/25 14:14:00;;;;;;;31.70;17.87;;;;;;;;;;5053628;28;20472;-74
2022/03/25 14:16:37;;;;;;;28.80;16.50;;;;;;;;;;5052988;28;20566;-74
2022/03/25 14:19:07;;;;;;;30.60;16.23;;;;;;;;;;5052907;28;20727;-75
2022/03/25 14:21:43;;;;;;;23.80;14.13;;;;;;;;;;5080163;28;20456;-74
2022/03/25 14:26:59;;;;;;;26.30;16.80;;;;;;;;;;5075655;28;20443;-74
2022/03/25 14:29:27;;;;;;;32.13;18.43;;;;;;;;;;5074030;28;20541;-75
2022/03/25 14:31:56;;;;;;;30.57;17.87;;;;;;;;;;5074273;28;20811;-72
2022/03/25 14:34:24;;;;;;;35.67;18.47;;;;;;;;;;5067783;28;21097;-74
2022/03/25 14:36:54;;;;;;;28.83;16.70;;;;;;;;;;5054221;28;20503;-72
2022/03/25 14:39:27;;;;;;;27.73;14.63;;;;;;;;;;5063920;28;20457;-74
2022/03/25 14:41:55;;;;;;;28.27;17.10;;;;;;;;;;5073189;28;20543;-72
2022/03/25 14:44:29;;;;;;;32.33;20.07;;;;;;;;;;5073766;28;20461;-73
2022/03/25 14:47:01;;;;;;;28.60;15.30;;;;;;;;;;5071855;28;20464;-73
2022/03/25 14:49:31;;;;;;;24.97;17.40;;;;;;;;;;5074766;28;20512;-72
2022/03/25 14:52:04;;;;;;;26.47;17.80;;;;;;;;;;5064704;28;20537;-73
2022/03/25 14:54:38;;;;;;;29.20;16.80;;;;;;;;;;5067397;28;20518;-73
2022/03/25 14:57:06;;;;;;;26.67;18.00;;;;;;;;;;5061606;28;20481;-73
2022/03/25 14:59:39;;;;;;;38.17;16.20;;;;;;;;;;5054233;28;20496;-73